Jamestown, ND

7:30 AM CDT on April 26, 2017 (GMT -0500)
Jamestown Municipal | | Change Station

Elev 1496 ft 46.93 °N, 98.68 °W | Updated 34 minutes ago

Overcast
Overcast
29 °F
Feels Like 16 °F
N
20
Wind Variable Wind from North
Gusts 24 mph

Today
High -- | Low -- °F
--% Chance of Precip.
Yesterday
High -- | Low -- °F
Precip. -- in
Pressure 29.86 in
Visibility 10.0 miles
Clouds Overcast 1100 ft
Windchill 16 °F
Dew Point 25 °F
Humidity 85%
Rainfall 0.00 in
Snow Depth Not available.
6:26 AM 8:38 PM
New Moon, 0% visible
METAR KJMS 261156Z AUTO 01017G21KT 10SM OVC011 M02/M04 A2980 RMK AO2 SLP110 T10171039 10000 21017 55003
Pressure 29.86 in
Visibility 10.0 miles
Clouds Overcast 1100 ft
Windchill 16 °F
Dew Point 25 °F
Humidity 85%
Rainfall 0.00 in
Snow Depth Not available.
6:26 AM 8:38 PM
New Moon, 0% visible
METAR KJMS 261156Z AUTO 01017G21KT 10SM OVC011 M02/M04 A2980 RMK AO2 SLP110 T10171039 10000 21017 55003

Get Severe Weather Alerts

Thanks for signing up!

Be on the lookout for a verification email in your inbox.

You'll start receiving the daily forecast at 8 AM.

×

10-Day Weather Forecast

Almanac

Astronomy

Apr. 26, 2017 Rise Set
Actual Time
Civil Twilight
Nautical Twilight
Astronomical Twilight
Moon
Length of Visible Light
Length of Day
Tomorrow will be .
, % of the Moon is Illuminated

Today's Extremes

State Highs State Lows

Community

WunderPhotos

WunderBlog® & News

Nearby

Air Quality

  Air Quality AQ Index Pollutant
Not available.

Snow Depth

Station Depth Elevation

Earthquake Activity

City Distance Mag. Time & Date
Minimum magnitude displayed is 2.5.

Coastal Water Temperatures

Place Temperature

Stations

Nearby Weather Stations

Station Location Temp. Windchill Dew Point Humidity Wind Precip. Elev Updated Type
                   

Watches & Warnings

There are currently no watches in effect.